Time;durP1;ratioP1;P1;durP2;ratioP2;P2;SDS_P1;SDS_P2;PMS_P1;PMS_P2;Temp;Humidity;BMP_temperature;BMP_pressure;BME280_temperature;BME280_humidity;BME280_pressure;Samples;Min_cycle;Max_cycle;Signal;HPM_P1;HPM_P2
2020/12/21 00:02:18;;;;;;;32.55;19.27;;;;;;;1.26;73.46;97811.06;1734938;82;21382;-82
2020/12/21 00:04:48;;;;;;;33.70;19.60;;;;;;;1.26;73.48;97815.80;1735146;82;21089;-82
2020/12/21 00:07:16;;;;;;;32.95;19.82;;;;;;;1.26;73.47;97806.71;1734547;82;21080;-81
2020/12/21 00:09:47;;;;;;;31.93;20.45;;;;;;;1.28;73.47;97807.48;1734555;82;21100;-82
2020/12/21 00:12:16;;;;;;;35.68;20.35;;;;;;;1.32;73.32;97811.66;1734694;82;21089;-83
2020/12/21 00:14:46;;;;;;;35.50;20.43;;;;;;;1.34;73.17;97820.20;1734746;82;21207;-83
2020/12/21 00:17:15;;;;;;;38.05;21.02;;;;;;;1.32;73.19;97814.70;1734593;82;21084;-83
2020/12/21 00:19:44;;;;;;;36.75;22.65;;;;;;;1.33;73.18;97826.77;1734951;82;21580;-85
2020/12/21 00:22:13;;;;;;;36.35;22.13;;;;;;;1.35;73.22;97828.84;1734993;82;21143;-82
2020/12/21 00:24:44;;;;;;;32.42;18.77;;;;;;;1.36;72.94;97830.97;1704442;82;21124;-83
2020/12/21 00:27:13;;;;;;;29.48;18.95;;;;;;;1.26;72.49;97827.47;1734692;82;21466;-83
2020/12/21 00:29:46;;;;;;;35.68;20.55;;;;;;;1.15;72.19;97833.98;1734704;81;21495;-83
2020/12/21 00:32:14;;;;;;;33.33;19.35;;;;;;;1.05;72.21;97829.61;1734482;82;21060;-83
2020/12/21 00:34:43;;;;;;;31.93;19.23;;;;;;;0.99;72.27;97841.52;1733755;82;21179;-84
2020/12/21 00:37:12;;;;;;;37.80;20.52;;;;;;;0.95;72.46;97836.92;1733885;82;21099;-82
2020/12/21 00:39:40;;;;;;;40.70;24.25;;;;;;;1.00;72.73;97831.53;1734730;82;22170;-83
2020/12/21 00:42:09;;;;;;;43.95;26.17;;;;;;;1.02;72.44;97835.77;1733738;82;21167;-83
2020/12/21 00:44:38;;;;;;;36.60;20.97;;;;;;;0.98;72.07;97835.94;1733980;82;21076;-81
2020/12/21 00:47:07;;;;;;;38.45;22.65;;;;;;;0.95;71.76;97833.45;1733929;82;21514;-83
2020/12/21 00:49:36;;;;;;;37.98;21.45;;;;;;;0.94;71.28;97831.31;1734067;82;21076;-83
2020/12/21 00:52:05;;;;;;;40.30;23.35;;;;;;;0.86;70.95;97829.94;1734055;82;21145;-82
2020/12/21 00:54:36;;;;;;;40.75;24.35;;;;;;;0.73;70.95;97834.75;1733749;82;21068;-84
2020/12/21 00:57:05;;;;;;;33.45;19.92;;;;;;;0.60;71.17;97819.27;1734182;82;21084;-83
2020/12/21 00:59:34;;;;;;;41.23;23.25;;;;;;;0.62;71.20;97822.64;1734171;82;21581;-83
2020/12/21 01:02:07;;;;;;;41.08;22.85;;;;;;;0.60;71.09;97821.86;1733888;82;21120;-83
2020/12/21 01:04:37;;;;;;;44.23;23.42;;;;;;;0.63;71.25;97819.98;1733689;82;21550;-83
2020/12/21 01:07:05;;;;;;;44.88;24.95;;;;;;;0.62;70.95;97817.45;1733760;82;21533;-83
2020/12/21 01:09:35;;;;;;;55.90;29.15;;;;;;;0.58;71.02;97814.13;1733935;82;21148;-83
2020/12/21 01:12:03;;;;;;;69.05;38.75;;;;;;;0.55;71.09;97819.89;1734175;82;21172;-82
2020/12/21 01:14:32;;;;;;;39.33;21.77;;;;;;;0.55;71.30;97812.12;1734410;82;21120;-82
2020/12/21 01:17:01;;;;;;;32.25;18.48;;;;;;;0.58;71.23;97817.17;1733834;82;21368;-82
2020/12/21 01:19:30;;;;;;;33.08;18.75;;;;;;;0.51;71.07;97813.52;1733645;82;21182;-84
2020/12/21 01:22:07;;;;;;;41.10;22.93;;;;;;;0.48;71.20;97814.09;1735197;82;21148;-83
2020/12/21 01:24:50;;;;;;;41.02;21.45;;;;;;;0.52;71.27;97814.35;1734323;82;21112;-83
2020/12/21 01:27:20;;;;;;;33.10;18.75;;;;;;;0.53;71.17;97817.33;1734762;82;20997;-83
2020/12/21 01:29:51;;;;;;;36.15;19.05;;;;;;;0.56;71.22;97820.28;1734329;82;21362;-82
2020/12/21 01:32:23;;;;;;;34.60;19.37;;;;;;;0.55;71.18;97811.66;1734576;82;21616;-84
2020/12/21 01:34:55;;;;;;;43.70;21.45;;;;;;;0.59;71.11;97811.08;1729202;81;21093;-83
2020/12/21 01:37:26;;;;;;;46.28;20.82;;;;;;;0.64;70.86;97810.00;1726856;83;21088;-82
2020/12/21 01:39:56;;;;;;;58.25;29.77;;;;;;;0.66;70.58;97804.33;1727245;83;21056;-82
2020/12/21 01:42:25;;;;;;;48.10;25.55;;;;;;;0.67;70.56;97809.06;1727265;83;21184;-83
2020/12/21 01:44:55;;;;;;;40.70;22.00;;;;;;;0.61;70.28;97806.70;1726878;83;21057;-83
2020/12/21 01:47:23;;;;;;;47.20;27.60;;;;;;;0.48;70.64;97804.57;1727028;83;21152;-83
2020/12/21 01:49:53;;;;;;;38.45;21.75;;;;;;;0.50;70.86;97805.80;1728328;83;21152;-82
2020/12/21 01:52:22;;;;;;;35.85;21.27;;;;;;;0.48;70.89;97800.69;1727314;83;21124;-83
2020/12/21 01:54:51;;;;;;;33.85;17.65;;;;;;;0.45;71.11;97798.65;1726856;83;21207;-83
2020/12/21 01:57:20;;;;;;;32.48;16.70;;;;;;;0.42;71.25;97789.71;1727156;83;21235;-83
2020/12/21 01:59:50;;;;;;;34.88;18.98;;;;;;;0.40;71.31;97792.33;1726964;83;21097;-84
2020/12/21 02:02:19;;;;;;;30.50;18.15;;;;;;;0.42;71.55;97797.48;1726886;83;21025;-82
2020/12/21 02:04:51;;;;;;;26.80;16.30;;;;;;;0.48;71.46;97803.28;1726980;83;21160;-82
2020/12/21 02:07:24;;;;;;;27.70;16.25;;;;;;;0.57;71.01;97795.59;1726923;83;21195;-83
2020/12/21 02:09:54;;;;;;;31.97;17.77;;;;;;;0.64;70.36;97789.72;1727038;83;21199;-83
2020/12/21 02:12:25;;;;;;;39.73;22.42;;;;;;;0.57;70.10;97789.56;1726824;83;21156;-83
2020/12/21 02:14:54;;;;;;;31.30;18.05;;;;;;;0.55;70.37;97788.34;1727089;83;21510;-83
2020/12/21 02:17:23;;;;;;;34.23;19.42;;;;;;;0.48;70.35;97785.14;1727230;83;21235;-84
2020/12/21 02:19:53;;;;;;;34.03;18.65;;;;;;;0.38;70.68;97787.67;1727437;83;21389;-82
2020/12/21 02:22:26;;;;;;;36.85;21.73;;;;;;;0.34;71.11;97787.83;1727204;83;21167;-83
2020/12/21 02:24:54;;;;;;;33.40;19.87;;;;;;;0.39;71.74;97785.47;1727800;83;21521;-83
2020/12/21 02:27:24;;;;;;;33.70;19.37;;;;;;;0.46;71.99;97784.33;1727634;83;21159;-82
2020/12/21 02:29:56;;;;;;;32.73;17.30;;;;;;;0.51;71.99;97775.94;1727182;83;21116;-82
2020/12/21 02:32:25;;;;;;;31.97;19.35;;;;;;;0.56;71.82;97778.81;1727190;83;21359;-81
2020/12/21 02:34:56;;;;;;;36.10;19.92;;;;;;;0.60;71.59;97773.91;1727173;81;21196;-83
2020/12/21 02:37:26;;;;;;;35.55;19.75;;;;;;;0.63;71.55;97777.22;1727234;83;21061;-82
2020/12/21 02:39:55;;;;;;;39.38;23.02;;;;;;;0.65;71.34;97783.63;1726805;83;21093;-84
2020/12/21 02:42:24;;;;;;;50.25;28.07;;;;;;;0.64;71.39;97780.64;1726776;83;21147;-82
2020/12/21 02:44:53;;;;;;;38.55;21.80;;;;;;;0.65;71.31;97783.63;1727177;83;21391;-84
2020/12/21 02:47:22;;;;;;;37.13;20.55;;;;;;;0.62;71.02;97782.01;1727717;83;21124;-82
2020/12/21 02:49:51;;;;;;;31.77;18.65;;;;;;;0.56;71.02;97773.17;1727620;83;21112;-83
2020/12/21 02:52:22;;;;;;;32.80;20.27;;;;;;;0.59;70.71;97770.91;1727819;83;21188;-82
2020/12/21 02:54:54;;;;;;;36.63;21.20;;;;;;;0.55;70.69;97771.48;1727581;83;21148;-82
2020/12/21 02:57:24;;;;;;;34.73;19.12;;;;;;;0.47;70.62;97777.39;1727732;83;21192;-84
2020/12/21 02:59:54;;;;;;;46.58;26.20;;;;;;;0.36;70.98;97775.23;1727543;83;21608;-82
2020/12/21 03:02:25;;;;;;;46.35;26.97;;;;;;;0.31;71.37;97777.60;1728060;83;21169;-84
2020/12/21 03:04:59;;;;;;;71.65;38.28;;;;;;;0.32;71.20;97772.35;1726849;83;21088;-85
2020/12/21 03:07:31;;;;;;;36.95;19.40;;;;;;;0.33;71.07;97771.91;1727158;83;21008;-83
2020/12/21 03:10:01;;;;;;;39.13;21.05;;;;;;;0.28;70.36;97778.55;1727640;83;21357;-84
2020/12/21 03:12:30;;;;;;;35.35;22.13;;;;;;;0.01;70.49;97780.86;1727490;83;21620;-83
2020/12/21 03:14:59;;;;;;;39.13;21.97;;;;;;;-0.10;71.00;97779.94;1727212;83;21060;-83
2020/12/21 03:17:28;;;;;;;38.40;23.38;;;;;;;-0.07;71.02;97779.81;1726501;83;21085;-83
2020/12/21 03:19:57;;;;;;;59.00;34.75;;;;;;;-0.02;70.82;97785.68;1726642;83;21068;-82
2020/12/21 03:22:26;;;;;;;57.80;32.67;;;;;;;0.02;70.66;97777.37;1726884;83;22516;-83
2020/12/21 03:24:56;;;;;;;37.38;21.50;;;;;;;0.05;70.49;97778.08;1726482;83;21089;-83
2020/12/21 03:27:27;;;;;;;39.27;21.87;;;;;;;0.10;70.36;97781.35;1726866;83;21088;-84
2020/12/21 03:29:56;;;;;;;35.98;20.80;;;;;;;0.14;70.30;97782.10;1727087;83;21126;-84
2020/12/21 03:32:25;;;;;;;36.98;19.92;;;;;;;0.14;70.04;97779.06;1726722;83;21535;-83
2020/12/21 03:34:54;;;;;;;35.25;19.73;;;;;;;0.08;70.30;97780.58;1726368;81;21369;-82
2020/12/21 03:37:23;;;;;;;39.83;23.77;;;;;;;0.12;70.39;97777.41;1727324;83;21160;-82
2020/12/21 03:39:52;;;;;;;40.00;22.15;;;;;;;0.12;70.43;97778.70;1727546;83;21189;-83
2020/12/21 03:42:21;;;;;;;31.90;18.45;;;;;;;0.15;70.58;97778.60;1726806;83;21149;-84
2020/12/21 03:44:51;;;;;;;34.85;19.85;;;;;;;0.20;70.58;97773.66;1726947;83;21176;-83
2020/12/21 03:47:20;;;;;;;30.20;18.50;;;;;;;0.17;70.51;97772.45;1726901;83;22354;-83
2020/12/21 03:49:49;;;;;;;32.42;18.62;;;;;;;0.18;70.53;97773.33;1726885;83;21064;-84
2020/12/21 03:52:19;;;;;;;38.42;20.60;;;;;;;0.14;70.63;97775.63;1727050;83;21061;-82
2020/12/21 03:54:48;;;;;;;30.32;17.12;;;;;;;0.16;70.54;97778.54;1727235;83;21073;-82
2020/12/21 03:57:17;;;;;;;32.15;18.80;;;;;;;0.16;70.50;97781.13;1727752;83;21499;-84
2020/12/21 03:59:46;;;;;;;34.00;19.98;;;;;;;0.13;70.59;97775.23;1726959;83;21455;-84
2020/12/21 04:02:15;;;;;;;37.65;20.97;;;;;;;0.10;70.68;97779.22;1726559;83;21088;-82
2020/12/21 04:04:44;;;;;;;34.03;19.02;;;;;;;0.13;70.54;97777.83;1726790;83;21104;-82
2020/12/21 04:07:13;;;;;;;33.53;18.12;;;;;;;0.14;70.38;97781.64;1726703;83;21159;-85
2020/12/21 04:09:44;;;;;;;27.02;15.63;;;;;;;0.15;70.27;97782.48;1727261;83;21124;-83
2020/12/21 04:12:13;;;;;;;28.27;15.95;;;;;;;0.12;70.18;97779.99;1727341;83;21205;-83
2020/12/21 04:14:42;;;;;;;24.02;13.88;;;;;;;0.03;70.17;97786.82;1727499;83;21135;-83
2020/12/21 04:17:12;;;;;;;30.48;17.17;;;;;;;-0.15;70.33;97782.69;1727043;83;21613;-83
2020/12/21 04:19:43;;;;;;;46.58;24.85;;;;;;;-0.30;70.86;97792.27;1727000;83;21144;-83
2020/12/21 04:22:12;;;;;;;43.75;23.65;;;;;;;-0.32;71.17;97785.86;1726848;83;21144;-83
2020/12/21 04:24:41;;;;;;;33.40;18.00;;;;;;;-0.27;71.26;97790.88;1726769;83;22139;-84
2020/12/21 04:27:10;;;;;;;33.25;17.92;;;;;;;-0.21;71.24;97792.41;1726958;83;21203;-82
2020/12/21 04:29:39;;;;;;;40.43;23.60;;;;;;;-0.16;71.23;97793.11;1726680;83;21450;-83
2020/12/21 04:32:07;;;;;;;40.15;20.08;;;;;;;-0.10;71.14;97789.00;1726654;83;21216;-84
2020/12/21 04:34:37;;;;;;;49.93;23.85;;;;;;;-0.08;71.06;97786.74;1726436;81;21088;-84
2020/12/21 04:37:06;;;;;;;33.75;18.40;;;;;;;-0.09;71.09;97786.80;1726803;83;21371;-83
2020/12/21 04:39:35;;;;;;;33.98;19.40;;;;;;;-0.13;71.01;97785.22;1726463;83;21088;-84
2020/12/21 04:42:06;;;;;;;32.40;18.67;;;;;;;-0.21;71.10;97783.36;1727437;83;21124;-84
2020/12/21 04:44:34;;;;;;;26.70;14.63;;;;;;;-0.22;71.10;97786.84;1727031;83;21478;-82
2020/12/21 04:47:05;;;;;;;26.75;15.48;;;;;;;-0.20;71.03;97787.62;1727155;83;21128;-85
2020/12/21 04:49:34;;;;;;;37.70;19.02;;;;;;;-0.23;71.03;97787.30;1705766;83;21207;-82
2020/12/21 04:52:06;;;;;;;36.25;20.02;;;;;;;-0.24;71.09;97785.58;1727005;83;21165;-83
2020/12/21 04:54:37;;;;;;;29.30;17.05;;;;;;;-0.23;71.06;97786.00;1727035;83;21068;-84
2020/12/21 04:57:06;;;;;;;30.20;15.30;;;;;;;-0.20;70.93;97788.92;1727083;83;21184;-82
2020/12/21 04:59:35;;;;;;;26.87;15.13;;;;;;;-0.20;70.87;97782.00;1727345;83;21092;-83
2020/12/21 05:02:05;;;;;;;27.85;15.70;;;;;;;-0.25;70.73;97786.94;1727728;83;21377;-84
2020/12/21 05:04:36;;;;;;;35.60;16.95;;;;;;;-0.33;70.94;97783.33;1727685;83;21188;-83
2020/12/21 05:07:06;;;;;;;32.70;19.75;;;;;;;-0.39;70.93;97786.97;1727606;83;21065;-84
2020/12/21 05:09:39;;;;;;;30.17;18.48;;;;;;;-0.38;71.11;97783.94;1727597;83;21084;-84
2020/12/21 05:12:09;;;;;;;34.67;17.92;;;;;;;-0.40;71.23;97785.29;1727833;83;21168;-84
2020/12/21 05:14:40;;;;;;;34.20;18.77;;;;;;;-0.37;71.42;97785.16;1728378;83;21230;-83
2020/12/21 05:17:13;;;;;;;37.88;23.85;;;;;;;-0.27;71.46;97796.91;1734385;80;21037;-82
2020/12/21 05:19:43;;;;;;;30.45;18.98;;;;;;;-0.23;71.33;97792.48;1753997;80;21561;-83
2020/12/21 05:22:15;;;;;;;24.65;14.45;;;;;;;-0.21;71.15;97798.44;1754648;79;21136;-85
2020/12/21 05:24:45;;;;;;;32.08;18.27;;;;;;;-0.18;71.11;97801.35;1754536;79;21101;-83
2020/12/21 05:27:18;;;;;;;28.25;16.02;;;;;;;-0.17;71.07;97805.66;1753586;82;21371;-84
2020/12/21 05:29:56;;;;;;;38.98;20.88;;;;;;;-0.20;71.04;97809.18;1753443;82;21116;-82
2020/12/21 05:32:34;;;;;;;37.00;19.45;;;;;;;-0.30;71.20;97808.67;1753414;80;21108;-82
2020/12/21 05:35:10;;;;;;;38.65;20.35;;;;;;;-0.28;71.20;97815.08;1753679;82;21097;-85
2020/12/21 05:37:43;;;;;;;37.35;22.67;;;;;;;-0.29;71.21;97815.98;1753907;82;21065;-83
2020/12/21 05:40:13;;;;;;;46.25;29.67;;;;;;;-0.28;71.26;97811.20;1754058;80;21413;-83
2020/12/21 05:42:49;;;;;;;41.28;24.63;;;;;;;-0.25;71.21;97818.00;1753247;80;21231;-84
2020/12/21 05:45:32;;;;;;;31.60;18.50;;;;;;;-0.23;71.16;97825.28;1754278;80;21097;-83
2020/12/21 05:48:04;;;;;;;31.60;17.37;;;;;;;-0.19;71.04;97824.26;1753540;82;21073;-84
2020/12/21 05:50:38;;;;;;;34.55;18.67;;;;;;;-0.19;71.05;97816.49;1753856;82;21152;-83
2020/12/21 05:53:12;;;;;;;31.27;19.02;;;;;;;-0.20;71.13;97822.13;1753453;82;21116;-84
2020/12/21 05:55:43;;;;;;;35.83;17.87;;;;;;;-0.29;71.23;97822.45;1753593;80;21234;-84
2020/12/21 05:58:35;;;;;;;35.98;19.12;;;;;;;-0.40;71.56;97828.44;1753442;82;21073;-84
2020/12/21 06:01:07;;;;;;;34.03;16.77;;;;;;;-0.45;72.14;97828.58;1753493;80;21179;-82
2020/12/21 06:03:56;;;;;;;32.35;15.93;;;;;;;-0.45;72.34;97826.45;1748993;79;21136;-84
2020/12/21 06:07:03;;;;;;;35.00;18.20;;;;;;;-0.43;72.24;97821.60;1749458;80;22351;-84
2020/12/21 06:09:59;;;;;;;;;;;;;;;;;;;;;
2020/12/21 06:13:03;;;;;;;39.25;20.57;;;;;;;-0.33;72.24;97823.45;1849656;77;28356;-82
2020/12/21 06:15:44;;;;;;;33.28;16.50;;;;;;;-0.45;72.09;97822.56;1813648;79;21135;-83
2020/12/21 06:18:28;;;;;;;44.03;22.67;;;;;;;-0.60;72.26;97833.80;1817537;79;21262;-83
2020/12/21 06:21:46;;;;;;;;;;;;;;;;;;;;;
2020/12/21 06:24:26;;;;;;;44.53;23.40;;;;;;;-0.50;72.82;97834.80;1759163;76;28006;-84
2020/12/21 06:27:15;;;;;;;41.33;23.00;;;;;;;-0.48;72.61;97844.64;1706083;83;21389;-83
2020/12/21 06:30:33;;;;;;;45.08;22.07;;;;;;;-0.49;72.54;97841.22;1706008;84;21108;-83
2020/12/21 06:33:41;;;;;;;;;;;;;;;-0.50;72.51;97834.36;1704807;84;21188;-84
2020/12/21 06:37:04;;;;;;;44.60;23.40;;;;;;;-0.48;72.38;97836.88;1700729;84;20229;-85
2020/12/21 06:41:01;;;;;;;44.48;22.07;;;;;;;-0.67;72.69;97832.31;1676732;81;21151;31
2020/12/21 06:45:04;;;;;;;47.17;22.02;;;;;;;-0.59;72.69;97834.67;1698529;80;21306;31
2020/12/21 06:48:21;;;;;;;;;;;;;;;-0.51;72.56;97833.12;1642819;84;21107;-87
2020/12/21 06:51:51;;;;;;;40.28;19.95;;;;;;;-0.41;72.09;97838.39;1653611;82;20283;-85
2020/12/21 07:30:26;;;;;;;52.33;25.05;;;;;;;-0.29;71.58;97869.04;1695647;80;21283;-83
2020/12/21 08:24:02;;;;;;;43.43;21.60;;;;;;;0.15;71.22;97866.21;1741704;78;21569;31
2020/12/21 09:47:39;;;;;;;48.20;23.97;;;;;;;0.45;71.14;97822.81;1736282;78;21230;31
2020/12/21 09:50:14;;;;;;;39.08;20.75;;;;;;;0.53;70.75;97820.80;1655886;86;22360;-86
2020/12/21 09:52:44;;;;;;;49.50;24.35;;;;;;;0.57;70.49;97812.44;1661454;84;21269;-85
2020/12/21 09:55:15;;;;;;;46.80;24.43;;;;;;;0.48;70.21;97808.45;1653393;86;21239;-85
2020/12/21 09:57:44;;;;;;;50.35;25.23;;;;;;;0.50;70.48;97810.98;1620218;86;21550;-84
2020/12/21 10:00:13;;;;;;;55.52;27.82;;;;;;;0.52;70.37;97806.58;1629907;87;21530;-85
2020/12/21 10:02:43;;;;;;;43.92;22.15;;;;;;;0.53;70.39;97801.36;1621843;87;21378;-87
2020/12/21 10:05:15;;;;;;;45.95;25.02;;;;;;;0.51;70.54;97803.14;1615147;87;21299;-83
2020/12/21 10:07:44;;;;;;;47.63;24.17;;;;;;;0.48;70.39;97808.91;1643842;86;21240;-85
2020/12/21 10:10:13;;;;;;;47.88;21.87;;;;;;;0.49;70.62;97811.44;1633752;86;21101;-82
2020/12/21 10:12:42;;;;;;;49.38;23.92;;;;;;;0.53;70.51;97806.55;1637196;87;21089;-84
2020/12/21 10:15:13;;;;;;;45.43;25.80;;;;;;;0.59;70.49;97811.92;1660060;86;21385;-84
2020/12/21 10:17:43;;;;;;;46.15;25.48;;;;;;;0.70;70.17;97807.63;1650286;86;21115;-82
2020/12/21 10:20:12;;;;;;;49.27;27.05;;;;;;;0.71;69.98;97806.72;1649591;86;21308;-82
2020/12/21 10:22:41;;;;;;;57.98;29.42;;;;;;;0.75;69.99;97813.48;1642529;86;21327;-83
2020/12/21 10:25:10;;;;;;;44.50;23.87;;;;;;;0.86;69.66;97807.44;1643013;86;21205;-84
2020/12/21 10:27:39;;;;;;;46.73;23.80;;;;;;;0.86;69.67;97816.52;1629381;87;21241;-84
2020/12/21 10:30:08;;;;;;;41.68;22.25;;;;;;;0.90;69.54;97810.77;1616096;87;21199;-85
2020/12/21 10:32:36;;;;;;;40.45;22.02;;;;;;;0.90;69.46;97812.07;1621416;86;21265;-84
2020/12/21 10:35:06;;;;;;;45.40;24.70;;;;;;;0.82;69.14;97813.64;1624573;85;21181;-85
2020/12/21 10:37:35;;;;;;;43.95;24.35;;;;;;;0.70;69.63;97818.84;1648457;85;21191;-83
2020/12/21 10:40:05;;;;;;;48.25;26.68;;;;;;;0.68;69.77;97822.41;1663566;85;21217;-86
2020/12/21 10:42:34;;;;;;;49.35;27.07;;;;;;;0.65;69.98;97826.39;1663574;85;21165;-83
2020/12/21 10:45:04;;;;;;;48.65;26.10;;;;;;;0.74;70.10;97818.28;1662848;85;21082;-82
2020/12/21 10:47:33;;;;;;;54.42;27.25;;;;;;;0.86;69.82;97813.92;1616621;87;21598;-82
2020/12/21 10:50:02;;;;;;;51.90;27.77;;;;;;;0.95;69.65;97810.98;1629551;87;21233;-84
2020/12/21 10:52:31;;;;;;;56.48;29.18;;;;;;;1.00;69.37;97805.59;1657983;85;21164;-83
2020/12/21 10:54:59;;;;;;;49.40;27.75;;;;;;;1.01;69.09;97797.78;1665066;85;21220;-84
2020/12/21 10:57:29;;;;;;;62.45;31.73;;;;;;;0.97;69.13;97800.09;1653470;85;21196;-84
2020/12/21 10:59:57;;;;;;;57.20;30.48;;;;;;;0.96;69.25;97802.75;1636126;87;21168;-84
2020/12/21 11:02:26;;;;;;;59.63;30.92;;;;;;;0.97;69.54;97802.69;1639639;87;21121;-84
2020/12/21 11:04:55;;;;;;;56.50;31.65;;;;;;;1.10;69.60;97801.73;1649444;87;21399;-83
2020/12/21 11:07:23;;;;;;;58.35;32.78;;;;;;;1.14;69.24;97798.13;1651025;87;21126;-83
2020/12/21 11:09:54;;;;;;;59.33;31.52;;;;;;;1.18;69.13;97813.09;1646566;85;21252;-85
2020/12/21 11:12:24;;;;;;;60.17;31.10;;;;;;;1.15;68.98;97805.00;1635506;86;21142;-83
2020/12/21 11:14:53;;;;;;;57.70;31.15;;;;;;;1.10;69.16;97805.63;1616864;87;21547;-83
2020/12/21 11:17:22;;;;;;;63.23;32.83;;;;;;;1.15;69.25;97805.45;1634613;87;21317;-85
2020/12/21 11:19:54;;;;;;;63.63;32.28;;;;;;;1.19;69.08;97809.17;1657148;86;21650;-84
2020/12/21 11:22:23;;;;;;;61.15;32.48;;;;;;;1.19;68.89;97816.11;1653399;85;21284;-83
2020/12/21 11:27:37;;;;;;;65.65;35.78;;;;;;;1.26;68.80;97805.87;1847315;77;28531;-85
2020/12/21 11:30:08;;;;;;;67.08;35.05;;;;;;;1.24;68.77;97811.09;1824430;78;21123;-84
2020/12/21 11:32:37;;;;;;;66.30;35.58;;;;;;;1.22;68.56;97808.19;1824348;78;21248;-85
2020/12/21 11:35:07;;;;;;;64.85;35.03;;;;;;;1.17;68.80;97804.47;1824920;78;21198;-85
2020/12/21 11:37:36;;;;;;;63.30;33.83;;;;;;;1.15;68.77;97801.11;1824296;78;21158;-85
2020/12/21 11:40:09;;;;;;;59.23;33.35;;;;;;;1.05;68.91;97802.37;1822753;78;21252;-84
2020/12/21 11:42:38;;;;;;;65.50;33.85;;;;;;;1.00;69.25;97803.84;1823652;78;21111;-85
2020/12/21 11:45:07;;;;;;;63.20;34.35;;;;;;;1.01;69.41;97802.12;1791949;80;21375;-83
2020/12/21 11:47:39;;;;;;;64.45;35.30;;;;;;;1.06;69.32;97806.64;1792076;79;21174;-85
2020/12/21 11:50:09;;;;;;;72.08;39.90;;;;;;;1.03;69.19;97801.14;1791846;79;21134;-86
2020/12/21 11:52:49;;;;;;;76.67;44.77;;;;;;;1.02;69.30;97805.10;1806648;77;21123;-86
2020/12/21 11:55:26;;;;;;;76.87;41.18;;;;;;;1.00;69.38;97802.55;1797278;78;21119;-87
2020/12/21 11:58:08;;;;;;;74.12;40.17;;;;;;;1.02;69.42;97799.45;1820770;78;21210;-87
2020/12/21 12:00:39;;;;;;;78.37;43.35;;;;;;;1.02;69.20;97802.51;1788378;78;21195;-85
2020/12/21 12:03:19;;;;;;;83.58;40.60;;;;;;;0.94;69.44;97800.65;1815837;78;21192;-86
2020/12/21 12:06:10;;;;;;;80.90;42.62;;;;;;;0.80;69.54;97804.63;1751493;81;21282;-83
2020/12/21 12:08:40;;;;;;;77.62;42.15;;;;;;;0.76;69.73;97808.69;1760422;81;21710;-84
2020/12/21 12:11:13;;;;;;;77.08;41.95;;;;;;;0.69;69.92;97804.20;1745839;81;21164;-83
2020/12/21 12:13:42;;;;;;;77.85;42.80;;;;;;;0.69;70.18;97806.78;1741280;81;21160;-84
2020/12/21 12:16:21;;;;;;;93.75;49.67;;;;;;;0.76;70.04;97806.94;1754648;80;21146;-85
2020/12/21 12:18:51;;;;;;;84.20;48.25;;;;;;;0.85;69.83;97804.91;1748890;81;21140;-82
2020/12/21 12:21:23;;;;;;;86.55;46.15;;;;;;;0.90;69.63;97799.10;1746617;81;21216;-83
2020/12/21 12:23:54;;;;;;;81.47;42.27;;;;;;;0.96;69.52;97801.45;1722634;81;21350;-84
2020/12/21 12:26:29;;;;;;;80.07;43.30;;;;;;;1.01;69.47;97802.12;1758860;81;21160;-84
2020/12/21 12:28:58;;;;;;;68.40;37.28;;;;;;;1.02;69.14;97802.05;1777406;80;21160;-85
2020/12/21 12:31:28;;;;;;;82.62;44.30;;;;;;;0.93;69.09;97793.78;1815532;79;21240;-88
2020/12/21 12:34:01;;;;;;;97.47;51.85;;;;;;;0.77;69.37;97790.93;1737548;81;21163;-84
2020/12/21 12:36:57;;;;;;;76.85;45.03;;;;;;;0.66;69.75;97790.53;1717282;80;21563;-85
2020/12/21 14:46:14;;;;;;;;;;;;;;;;;;;;;
2020/12/21 15:35:17;;;;;;;;;;;;;;;0.08;73.32;97775.40;1594681;84;21154;-83
2020/12/21 15:46:04;;;;;;;53.00;28.92;;;;;;;0.09;73.49;97777.08;1596057;85;21381;31
2020/12/21 15:49:37;;;;;;;61.37;31.75;;;;;;;0.12;73.21;97777.41;1560630;90;21172;-84
2020/12/21 15:52:54;;;;;;;52.30;32.55;;;;;;;0.12;73.37;97779.99;1577767;88;21207;-83
2020/12/21 16:03:03;;;;;;;54.57;30.23;;;;;;;0.12;73.19;97779.99;1740486;78;22706;31
2020/12/21 16:06:31;;;;;;;61.48;34.10;;;;;;;0.04;73.51;97785.46;1707199;78;21564;-83
2020/12/21 16:20:20;;;;;;;55.08;29.32;;;;;;;0.13;73.36;97771.35;1740912;78;948836;-81
2020/12/21 16:23:35;;;;;;;54.73;30.55;;;;;;;0.11;73.28;97772.68;1646352;84;21631;-82
2020/12/21 16:26:52;;;;;;;62.05;36.10;;;;;;;0.25;72.80;97785.14;1639371;81;22863;-84
2020/12/21 16:30:11;;;;;;;60.40;34.45;;;;;;;0.25;72.40;97783.39;1561421;91;21155;-84
2020/12/21 16:33:25;;;;;;;56.68;30.20;;;;;;;0.32;72.15;97779.28;1604718;81;21240;-82
2020/12/21 16:36:40;;;;;;;60.70;31.45;;;;;;;0.27;71.91;97782.03;1620480;85;21137;-83
2020/12/21 16:39:51;;;;;;;62.20;35.10;;;;;;;0.14;72.11;97787.28;1604835;88;21116;-82
2020/12/21 16:42:57;;;;;;;63.05;33.28;;;;;;;0.08;72.25;97790.94;1609394;85;21274;-83
2020/12/21 16:45:41;;;;;;;65.47;36.53;;;;;;;0.12;72.33;97785.17;1630672;82;21187;31
2020/12/21 16:48:21;;;;;;;60.78;31.52;;;;;;;0.14;72.24;97789.41;1615737;86;21252;-82
2020/12/21 16:50:56;;;;;;;57.80;32.30;;;;;;;0.14;72.27;97781.64;1611468;86;21355;-83
2020/12/21 16:53:49;;;;;;;63.45;34.83;;;;;;;0.16;72.21;97784.17;1600346;86;21205;-82
2020/12/21 16:56:23;;;;;;;80.12;38.40;;;;;;;0.08;72.06;97790.09;1614131;86;21609;-82
2020/12/21 16:59:00;;;;;;;65.72;34.80;;;;;;;0.06;72.12;97786.69;1607061;86;21184;-82
2020/12/21 17:01:57;;;;;;;64.60;32.88;;;;;;;0.07;72.32;97785.37;1684162;83;21125;-84
2020/12/21 17:04:29;;;;;;;66.10;35.23;;;;;;;0.17;72.32;97785.41;1705350;83;21204;-83
2020/12/21 17:07:18;;;;;;;74.55;38.53;;;;;;;0.29;72.05;97786.70;1699192;81;21223;-82
2020/12/21 17:09:52;;;;;;;62.62;34.05;;;;;;;0.33;71.87;97782.27;1692281;83;21405;-83
2020/12/21 17:12:22;;;;;;;67.58;34.75;;;;;;;0.38;71.72;97789.42;1690438;81;21010;-82
2020/12/21 17:15:05;;;;;;;65.15;35.80;;;;;;;0.33;71.47;97788.28;1712790;78;21280;-83
2020/12/21 17:17:52;;;;;;;68.37;35.17;;;;;;;0.35;71.63;97798.58;1768134;78;21041;-82
2020/12/21 17:20:22;;;;;;;69.35;36.53;;;;;;;0.40;71.42;97805.73;1764837;76;21565;-83
2020/12/21 17:23:49;;;;;;;66.92;35.75;;;;;;;0.45;71.29;97800.78;1745968;77;21201;-84
2020/12/21 17:26:43;;;;;;;60.28;32.55;;;;;;;0.45;71.04;97806.42;1705713;78;21184;-84
2020/12/21 17:29:20;;;;;;;69.10;34.67;;;;;;;0.31;71.01;97799.17;1701681;79;21522;-83
2020/12/21 17:31:53;;;;;;;65.60;33.85;;;;;;;0.30;71.26;97798.78;1738519;78;21109;-82
2020/12/21 17:34:34;;;;;;;58.73;31.17;;;;;;;0.30;71.16;97797.91;1750075;78;20974;-83
2020/12/21 17:37:25;;;;;;;59.50;32.90;;;;;;;0.32;70.88;97798.27;1728197;79;21112;-82
2020/12/21 17:40:16;;;;;;;58.68;31.48;;;;;;;0.25;70.73;97796.80;1736167;78;23020;31
2020/12/21 17:43:09;;;;;;;;;;;;;;;0.18;70.89;97802.66;1718027;77;21153;-83
2020/12/21 17:46:18;;;;;;;69.35;36.68;;;;;;;0.19;71.04;97803.50;1688950;77;20887;-84
2020/12/21 17:49:22;;;;;;;74.42;39.00;;;;;;;0.16;70.78;97800.55;1721442;79;21276;-82
2020/12/21 17:52:10;;;;;;;89.83;46.60;;;;;;;0.10;70.97;97807.25;1743542;80;21220;-83
2020/12/21 17:54:39;;;;;;;92.85;47.03;;;;;;;0.12;71.05;97808.06;1742456;80;21022;-82
2020/12/21 17:57:13;;;;;;;86.60;44.53;;;;;;;0.07;70.92;97815.14;1702251;78;21115;-82
2020/12/21 17:59:48;;;;;;;90.07;43.33;;;;;;;-0.03;71.34;97803.42;1678058;84;21041;-83
2020/12/21 18:02:37;;;;;;;81.17;41.42;;;;;;;-0.03;71.48;97801.67;1713298;83;21048;-81
2020/12/21 18:05:37;;;;;;;71.20;36.23;;;;;;;0.02;71.50;97800.67;1700769;83;21288;-82
2020/12/21 18:08:14;;;;;;;68.60;33.63;;;;;;;0.03;71.36;97800.61;1702604;83;21163;-81
2020/12/21 18:10:49;;;;;;;86.00;41.53;;;;;;;-0.10;71.18;97801.50;1699056;81;21066;-82
2020/12/21 18:13:26;;;;;;;83.45;39.48;;;;;;;-0.34;71.69;97792.84;1742591;81;21216;-83
2020/12/21 18:15:53;;;;;;;91.28;44.48;;;;;;;-0.37;72.12;97791.64;1728747;82;21188;-80
2020/12/21 18:18:24;;;;;;;94.30;44.05;;;;;;;-0.38;72.23;97789.11;1730540;82;21383;-83
2020/12/21 18:20:52;;;;;;;101.70;49.55;;;;;;;-0.38;72.31;97794.28;1740560;82;21239;-81
2020/12/21 18:23:23;;;;;;;112.20;50.23;;;;;;;-0.32;72.36;97792.78;1750735;80;21062;-82